This is the latest recevied weather packets stored in our database for station/object DOUGLAS. If no packets are shown the sender has not sent any weather packets the latest 10 day(s).
| Time | Temp. | Humidity | Pressure | Rain* | Wind** | Luminosity | Snow |
|---|---|---|---|---|---|---|---|
| 1777673403 | 13.33° C | 81% | 0 hPa | - | - | - | - |
| 1777672804 | 13.33° C | 81% | 0 hPa | - | - | - | - |
| 1777672203 | 12.78° C | 83% | 0 hPa | - | - | - | - |
| 1777671603 | 12.78° C | 85% | 0 hPa | - | - | - | - |
| 1777671004 | 12.78° C | 85% | 0 hPa | - | - | - | - |
| 1777670403 | 11.67° C | 88% | 0 hPa | - | - | - | - |
| 1777669803 | 12.22° C | 84% | 0 hPa | - | - | - | - |
| 1777669203 | 12.22° C | 88% | 0 hPa | - | - | - | - |
| 1777668603 | 12.78° C | 86% | 0 hPa | - | - | - | - |
| 1777668003 | 11.67° C | 90% | 0 hPa | - | - | - | - |
| 1777667403 | 11.67° C | 90% | 0 hPa | - | - | - | - |
| 1777666803 | 10.56° C | 94% | 0 hPa | - | - | - | - |
| 1777666203 | 11.11° C | 94% | 0 hPa | - | - | - | - |
| 1777665604 | 11.67° C | 90% | 0 hPa | - | - | - | - |
| 1777665003 | 10.56° C | 94% | 0 hPa | - | - | - | - |
| 1777664403 | 11.67° C | 91% | 0 hPa | - | - | - | - |
| 1777663804 | 11.11° C | 94% | 0 hPa | - | - | - | - |
| 1777663202 | 10.56° C | 95% | 0 hPa | - | - | - | - |
| 1777662603 | 10° C | 97% | 0 hPa | - | - | - | - |
| 1777662003 | 10.56° C | 92% | 0 hPa | - | - | - | - |
| 1777661403 | 10.56° C | 94% | 0 hPa | - | - | - | - |
| 1777660803 | 11.11° C | 94% | 0 hPa | - | - | - | - |
| 1777660203 | 10.56° C | 94% | 0 hPa | - | - | - | - |
| 1777659603 | 11.67° C | 88% | 0 hPa | - | - | - | - |
| 1777659003 | 11.11° C | 91% | 0 hPa | - | - | - | - |
* Rain since midnight (hover to see other rain measurements)
** Current wind speed in m/s (hover to see current wind gust speed)